createdAt,value
2023-01-17T00:02:13.126Z,10.70
2023-01-17T00:04:58.791Z,10.00
2023-01-17T00:07:45.699Z,8.80
2023-01-17T00:10:22.562Z,20.30
2023-01-17T00:13:02.980Z,9.60
2023-01-17T00:15:31.272Z,6.00
2023-01-17T00:17:58.567Z,5.00
2023-01-17T00:20:46.334Z,3.30
2023-01-17T00:23:37.387Z,4.30
2023-01-17T00:26:15.094Z,6.00
2023-01-17T00:28:43.601Z,6.60
2023-01-17T00:31:12.620Z,11.50
2023-01-17T00:33:39.640Z,11.30
2023-01-17T00:36:08.220Z,5.80
2023-01-17T00:38:37.413Z,6.30
2023-01-17T00:41:08.015Z,5.50
2023-01-17T00:43:53.817Z,30.70
2023-01-17T00:46:39.851Z,12.50
2023-01-17T00:49:26.330Z,4.20
2023-01-17T00:52:12.233Z,4.60
2023-01-17T00:54:59.088Z,3.30
2023-01-17T00:57:44.859Z,3.90
2023-01-17T01:00:31.100Z,4.40
2023-01-17T01:03:16.661Z,23.70
2023-01-17T01:08:48.234Z,30.00
2023-01-17T01:11:39.467Z,44.60
2023-01-17T01:14:28.719Z,33.30
2023-01-17T01:17:14.381Z,13.00
2023-01-17T01:22:45.491Z,12.50
2023-01-17T01:25:31.127Z,9.30
2023-01-17T01:28:31.888Z,9.50
2023-01-17T01:31:22.390Z,7.60
2023-01-17T01:33:53.330Z,5.00
2023-01-17T01:36:20.947Z,18.70
2023-01-17T01:38:49.693Z,11.20
2023-01-17T01:41:17.425Z,6.70
2023-01-17T01:43:46.234Z,4.00
2023-01-17T01:46:23.387Z,5.90
2023-01-17T01:48:54.004Z,5.50
2023-01-17T01:51:43.843Z,5.30
2023-01-17T01:54:20.026Z,7.80
2023-01-17T01:56:48.638Z,7.20
2023-01-17T01:59:18.773Z,9.10
2023-01-17T02:01:47.843Z,9.10
2023-01-17T02:04:14.960Z,10.50
2023-01-17T02:06:51.611Z,15.00
2023-01-17T02:09:19.630Z,18.10
2023-01-17T02:11:49.604Z,14.50
2023-01-17T02:14:18.830Z,7.90
2023-01-17T02:16:58.119Z,7.60
2023-01-17T02:19:37.058Z,3.80
2023-01-17T02:22:19.443Z,3.30
2023-01-17T02:25:27.700Z,2.80
2023-01-17T02:32:55.860Z,5.00
2023-01-17T02:35:32.114Z,3.50
2023-01-17T02:38:16.142Z,5.10
2023-01-17T02:41:10.862Z,3.20
2023-01-17T02:43:39.171Z,6.40
2023-01-17T02:46:06.911Z,4.70
2023-01-17T02:48:37.186Z,3.60
2023-01-17T02:51:22.703Z,4.20
2023-01-17T02:56:58.111Z,10.70
2023-01-17T02:59:45.926Z,9.10
2023-01-17T03:03:00.518Z,18.50
2023-01-17T03:05:56.958Z,8.50
2023-01-17T03:08:25.355Z,6.40
2023-01-17T03:10:52.760Z,7.50
2023-01-17T03:13:19.742Z,6.60
2023-01-17T03:15:46.816Z,6.50
2023-01-17T03:18:15.971Z,6.80
2023-01-17T03:20:42.891Z,5.80
2023-01-17T03:23:09.893Z,4.30
2023-01-17T03:25:36.906Z,7.30
2023-01-17T03:28:04.192Z,4.10
2023-01-17T03:30:31.126Z,5.50
2023-01-17T03:33:03.669Z,6.10
2023-01-17T03:35:30.666Z,4.50
2023-01-17T03:37:57.612Z,7.30
2023-01-17T03:40:24.797Z,4.30
2023-01-17T03:42:51.677Z,3.70
2023-01-17T03:45:19.503Z,4.60
2023-01-17T03:47:46.487Z,5.60
2023-01-17T03:50:13.522Z,6.90
2023-01-17T03:52:40.435Z,5.20
2023-01-17T03:55:07.727Z,6.50
2023-01-17T03:57:34.620Z,7.20
2023-01-17T04:00:01.641Z,6.20
2023-01-17T04:02:28.676Z,5.20
2023-01-17T04:04:55.822Z,6.90
2023-01-17T04:07:22.749Z,5.60
2023-01-17T04:09:51.729Z,6.70
2023-01-17T04:12:18.611Z,7.90
2023-01-17T04:14:45.529Z,6.30
2023-01-17T04:17:13.923Z,6.10
2023-01-17T04:19:41.105Z,5.60
2023-01-17T04:22:08.121Z,9.10
2023-01-17T04:24:35.340Z,6.80
2023-01-17T04:27:04.640Z,6.30
2023-01-17T04:29:31.984Z,8.40
2023-01-17T04:32:01.080Z,9.10
2023-01-17T04:34:28.008Z,8.50
2023-01-17T04:36:54.978Z,9.40
2023-01-17T04:39:23.049Z,6.10
2023-01-17T04:41:49.960Z,9.70
2023-01-17T04:44:16.839Z,5.10
2023-01-17T04:46:44.365Z,5.60
2023-01-17T04:49:11.255Z,5.70
2023-01-17T04:51:38.182Z,6.40
2023-01-17T04:54:05.257Z,7.20
2023-01-17T04:56:32.189Z,8.70
2023-01-17T04:58:59.074Z,9.10
2023-01-17T05:01:26.737Z,7.80
2023-01-17T05:03:53.728Z,7.60
2023-01-17T05:06:20.684Z,6.20
2023-01-17T05:08:47.666Z,8.50
2023-01-17T05:11:15.061Z,15.30
2023-01-17T05:13:41.922Z,9.60
2023-01-17T05:16:08.908Z,10.10
2023-01-17T05:18:37.168Z,10.10
2023-01-17T05:21:06.763Z,12.10
2023-01-17T05:23:33.706Z,17.50
2023-01-17T05:26:00.704Z,12.00
2023-01-17T05:28:27.590Z,8.90
2023-01-17T05:30:54.642Z,6.40
2023-01-17T05:33:22.036Z,6.20
2023-01-17T05:35:49.005Z,11.00
2023-01-17T05:38:16.647Z,8.20
2023-01-17T05:40:43.547Z,10.90
2023-01-17T05:43:10.613Z,14.00
2023-01-17T05:45:37.661Z,8.40
2023-01-17T05:48:06.218Z,9.00
2023-01-17T05:50:36.716Z,12.10
2023-01-17T05:53:10.379Z,11.00
2023-01-17T05:55:38.855Z,11.00
2023-01-17T05:58:08.579Z,10.60
2023-01-17T06:00:36.738Z,10.50
2023-01-17T06:03:03.830Z,11.00
2023-01-17T06:05:31.078Z,9.90
2023-01-17T06:08:00.498Z,10.80
2023-01-17T06:10:28.902Z,11.40
2023-01-17T06:13:06.735Z,10.70
2023-01-17T06:15:38.189Z,8.30
2023-01-17T06:18:11.056Z,9.30
2023-01-17T06:20:52.118Z,10.40
2023-01-17T06:23:23.833Z,11.60
2023-01-17T06:25:51.402Z,14.50
2023-01-17T06:28:26.028Z,12.80
2023-01-17T06:30:56.718Z,12.20
2023-01-17T06:33:23.731Z,13.40
2023-01-17T06:35:52.636Z,13.80
2023-01-17T06:38:20.503Z,18.90
2023-01-17T06:40:48.525Z,31.60
2023-01-17T06:43:19.722Z,29.80
2023-01-17T06:45:46.961Z,24.30
2023-01-17T06:48:19.192Z,15.80
2023-01-17T06:50:49.451Z,15.60
2023-01-17T06:53:16.958Z,12.20
2023-01-17T06:55:45.126Z,9.00
2023-01-17T06:58:16.116Z,10.50
2023-01-17T07:00:44.142Z,10.10
2023-01-17T07:03:24.528Z,19.90
2023-01-17T07:05:59.610Z,13.40
2023-01-17T07:08:56.130Z,16.10
2023-01-17T07:11:28.017Z,15.60
2023-01-17T07:15:18.587Z,12.80
2023-01-17T07:17:47.018Z,13.60
2023-01-17T07:20:14.071Z,10.70
2023-01-17T07:22:45.227Z,28.50
2023-01-17T07:25:13.908Z,42.30
2023-01-17T07:27:40.903Z,36.80
2023-01-17T07:30:09.459Z,62.50
2023-01-17T07:32:36.711Z,71.50
2023-01-17T07:35:07.668Z,76.70
2023-01-17T07:37:38.763Z,54.80
2023-01-17T07:40:09.243Z,77.60
2023-01-17T07:42:36.254Z,82.10
2023-01-17T07:45:03.830Z,77.00
2023-01-17T07:47:33.543Z,62.90
2023-01-17T07:50:04.499Z,59.60
2023-01-17T07:52:32.761Z,63.40
2023-01-17T07:54:59.898Z,68.70
2023-01-17T07:57:28.592Z,87.50
2023-01-17T07:59:58.758Z,133.10
2023-01-17T08:02:30.635Z,95.20
2023-01-17T08:05:22.762Z,72.70
2023-01-17T08:08:01.559Z,76.40
2023-01-17T08:11:12.231Z,75.60
2023-01-17T08:13:55.622Z,89.10
2023-01-17T08:16:32.681Z,158.80
2023-01-17T08:19:11.073Z,95.20
2023-01-17T08:21:48.539Z,74.60
2023-01-17T08:24:30.133Z,48.30
2023-01-17T08:27:20.483Z,42.80
2023-01-17T08:30:01.564Z,64.00
2023-01-17T08:32:42.075Z,41.50
2023-01-17T08:35:32.913Z,42.00
2023-01-17T08:38:12.464Z,33.80
2023-01-17T08:40:52.733Z,41.20
2023-01-17T08:43:38.255Z,30.10
2023-01-17T08:46:36.389Z,22.60
2023-01-17T08:49:25.228Z,19.10
2023-01-17T08:52:34.082Z,20.10
2023-01-17T08:55:14.954Z,12.20
2023-01-17T09:01:06.230Z,16.40
2023-01-17T09:03:46.191Z,21.50
2023-01-17T09:06:54.612Z,21.00
2023-01-17T09:10:02.548Z,32.40
2023-01-17T09:12:54.675Z,19.00
2023-01-17T09:15:35.640Z,17.10
2023-01-17T09:18:27.206Z,15.50
2023-01-17T09:21:15.430Z,11.30
2023-01-17T09:27:07.370Z,19.30
2023-01-17T09:29:52.423Z,11.90
2023-01-17T09:32:38.774Z,9.60
2023-01-17T09:35:21.848Z,12.20
2023-01-17T09:38:25.200Z,12.80
2023-01-17T09:41:51.135Z,10.80
2023-01-17T09:45:44.570Z,10.70
2023-01-17T09:52:28.137Z,8.00
2023-01-17T09:56:19.624Z,6.70
2023-01-17T09:59:32.631Z,5.40
2023-01-17T10:02:27.333Z,8.90
2023-01-17T10:05:02.274Z,12.60
2023-01-17T10:08:04.706Z,7.00
2023-01-17T10:11:14.198Z,5.80
2023-01-17T10:14:40.054Z,5.80
2023-01-17T10:17:45.247Z,5.30
2023-01-17T10:20:56.386Z,7.70
2023-01-17T10:24:02.342Z,6.30
2023-01-17T10:27:06.981Z,5.70
2023-01-17T10:37:02.514Z,6.60
2023-01-17T10:42:53.465Z,6.20
2023-01-17T10:46:19.070Z,8.10
2023-01-17T10:49:17.760Z,17.30
2023-01-17T10:53:04.312Z,8.70
2023-01-17T10:56:23.725Z,7.10
2023-01-17T11:00:22.765Z,6.40
2023-01-17T11:02:57.069Z,7.00
2023-01-17T11:06:31.503Z,8.30
2023-01-17T11:09:40.145Z,29.30
2023-01-17T11:12:29.709Z,17.10
2023-01-17T11:15:11.894Z,23.20
2023-01-17T11:18:39.547Z,11.70
2023-01-17T11:21:28.976Z,13.30
2023-01-17T11:28:07.852Z,10.80
2023-01-17T11:30:52.825Z,10.50
2023-01-17T11:34:02.685Z,11.80
2023-01-17T11:37:18.071Z,10.60
2023-01-17T11:40:00.573Z,27.50
2023-01-17T11:45:34.652Z,29.40
2023-01-17T11:48:31.825Z,13.00
2023-01-17T11:51:20.216Z,18.80
2023-01-17T11:54:50.709Z,33.30
2023-01-17T11:57:37.381Z,12.70
2023-01-17T12:00:19.178Z,17.00
2023-01-17T12:03:17.880Z,8.00
2023-01-17T12:06:32.926Z,19.30
2023-01-17T12:09:56.278Z,10.80
2023-01-17T12:13:40.809Z,6.60
2023-01-17T12:16:47.395Z,8.90
2023-01-17T12:20:28.825Z,8.20
2023-01-17T12:23:33.167Z,6.90
2023-01-17T12:26:43.418Z,5.20
2023-01-17T12:30:04.069Z,6.10
2023-01-17T12:33:23.494Z,7.50
2023-01-17T12:36:22.244Z,5.80
2023-01-17T12:39:16.892Z,7.90
2023-01-17T12:42:31.692Z,5.90
2023-01-17T12:45:50.331Z,8.10
2023-01-17T12:48:34.303Z,8.20
2023-01-17T12:51:27.480Z,5.90
2023-01-17T12:54:40.633Z,6.70
2023-01-17T12:57:17.165Z,5.60
2023-01-17T13:00:30.340Z,8.50
2023-01-17T13:03:25.379Z,6.60
2023-01-17T13:06:04.745Z,5.10
2023-01-17T13:08:56.246Z,6.00
2023-01-17T13:12:03.434Z,7.70
2023-01-17T13:14:59.110Z,6.60
2023-01-17T13:18:09.258Z,5.80
2023-01-17T13:24:34.842Z,6.20
2023-01-17T13:27:30.921Z,6.70
2023-01-17T13:30:50.596Z,6.50
2023-01-17T13:34:02.053Z,7.60
2023-01-17T13:37:22.430Z,7.00
2023-01-17T13:40:26.047Z,7.90
2023-01-17T13:43:02.225Z,8.70
2023-01-17T13:45:40.161Z,9.50
2023-01-17T13:48:28.877Z,8.10
2023-01-17T13:52:01.014Z,8.40
2023-01-17T13:54:55.458Z,7.40
2023-01-17T13:57:34.392Z,10.50
2023-01-17T14:00:26.988Z,7.90
2023-01-17T14:02:56.078Z,8.40
2023-01-17T14:05:40.562Z,34.40
2023-01-17T14:08:21.229Z,10.20
2023-01-17T14:11:20.687Z,11.10
2023-01-17T14:13:52.415Z,18.70
2023-01-17T14:16:29.366Z,16.10
2023-01-17T14:18:59.707Z,13.20
2023-01-17T14:21:35.246Z,11.00
2023-01-17T14:24:47.791Z,14.20
2023-01-17T14:27:32.498Z,15.00
2023-01-17T14:30:10.525Z,17.80
2023-01-17T14:33:07.939Z,23.60
2023-01-17T14:35:39.139Z,12.60
2023-01-17T14:38:27.885Z,14.10
2023-01-17T14:41:00.153Z,12.30
2023-01-17T14:43:32.419Z,11.20
2023-01-17T14:46:07.452Z,13.30
2023-01-17T14:48:40.277Z,12.30
2023-01-17T14:51:19.787Z,14.80
2023-01-17T14:54:02.292Z,13.00
2023-01-17T14:56:30.722Z,10.20
2023-01-17T14:59:06.541Z,11.80
2023-01-17T15:01:35.752Z,15.00
2023-01-17T15:04:03.396Z,11.90
2023-01-17T15:06:40.202Z,14.20
2023-01-17T15:09:19.869Z,14.40
2023-01-17T15:11:49.877Z,13.40
2023-01-17T15:14:27.915Z,14.00
2023-01-17T15:16:55.442Z,14.00
2023-01-17T15:19:24.532Z,14.60
2023-01-17T15:21:54.075Z,16.50
2023-01-17T15:24:24.967Z,13.70
2023-01-17T15:26:52.028Z,16.60
2023-01-17T15:29:30.255Z,15.90
2023-01-17T15:32:00.111Z,19.00
2023-01-17T15:34:29.411Z,18.70
2023-01-17T15:37:00.946Z,17.70
2023-01-17T15:39:34.618Z,21.70
2023-01-17T15:42:08.291Z,22.50
2023-01-17T15:44:48.183Z,16.80
2023-01-17T15:47:37.979Z,24.90
2023-01-17T15:50:20.910Z,57.90
2023-01-17T15:52:52.612Z,26.50
2023-01-17T15:55:38.357Z,22.70
2023-01-17T15:58:26.904Z,32.50
2023-01-17T16:00:55.224Z,32.60
2023-01-17T16:03:31.147Z,22.70
2023-01-17T16:06:02.367Z,23.80
2023-01-17T16:08:38.500Z,20.10
2023-01-17T16:11:07.888Z,21.30
2023-01-17T16:13:42.793Z,18.90
2023-01-17T16:16:17.204Z,20.90
2023-01-17T16:18:46.247Z,22.50
2023-01-17T16:21:22.741Z,20.60
2023-01-17T16:23:50.541Z,20.90
2023-01-17T16:26:18.144Z,18.70
2023-01-17T16:28:45.230Z,20.00
2023-01-17T16:31:12.346Z,18.30
2023-01-17T16:33:41.830Z,20.60
2023-01-17T16:36:16.229Z,21.90
2023-01-17T16:38:44.815Z,25.00
2023-01-17T16:41:11.798Z,26.10
2023-01-17T16:43:38.819Z,28.80
2023-01-17T16:46:07.168Z,35.20
2023-01-17T16:48:36.864Z,66.80
2023-01-17T16:51:08.026Z,40.90
2023-01-17T16:53:37.018Z,46.30
2023-01-17T16:56:13.993Z,48.30
2023-01-17T16:58:41.129Z,46.70
2023-01-17T17:01:16.930Z,57.20
2023-01-17T17:03:44.195Z,50.70
2023-01-17T17:06:11.479Z,44.30
2023-01-17T17:08:39.438Z,33.40
2023-01-17T17:11:16.773Z,28.50
2023-01-17T17:13:45.710Z,27.10
2023-01-17T17:16:23.549Z,25.10
2023-01-17T17:19:04.803Z,25.70
2023-01-17T17:21:33.985Z,38.00
2023-01-17T17:24:02.021Z,35.60
2023-01-17T17:26:33.579Z,38.40
2023-01-17T17:29:01.558Z,37.60
2023-01-17T17:31:28.546Z,38.20
2023-01-17T17:34:03.089Z,36.40
2023-01-17T17:36:30.413Z,32.10
2023-01-17T17:38:58.938Z,28.70
2023-01-17T17:41:28.680Z,34.40
2023-01-17T17:43:56.811Z,31.00
2023-01-17T17:46:26.564Z,30.20
2023-01-17T17:48:53.513Z,28.30
2023-01-17T17:51:38.246Z,28.20
2023-01-17T17:54:08.110Z,29.40
2023-01-17T17:56:37.242Z,30.90
2023-01-17T17:59:08.367Z,31.60
2023-01-17T18:01:40.457Z,32.20
2023-01-17T18:04:08.479Z,31.90
2023-01-17T18:06:35.780Z,31.20
2023-01-17T18:09:03.694Z,29.00
2023-01-17T18:11:31.318Z,28.40
2023-01-17T18:14:01.407Z,34.70
2023-01-17T18:16:31.965Z,32.40
2023-01-17T18:19:00.235Z,32.90
2023-01-17T18:21:31.826Z,36.30
2023-01-17T18:24:02.133Z,39.20
2023-01-17T18:26:32.315Z,37.10
2023-01-17T18:29:01.142Z,38.10
2023-01-17T18:31:30.053Z,38.90
2023-01-17T18:34:05.248Z,40.60
2023-01-17T18:39:04.073Z,44.10
2023-01-17T18:41:31.609Z,50.60
2023-01-17T18:43:58.588Z,39.60
2023-01-17T18:46:27.208Z,45.50
2023-01-17T18:48:56.645Z,41.00
2023-01-17T18:51:25.246Z,45.50
2023-01-17T18:53:52.498Z,42.60
2023-01-17T18:56:21.655Z,44.30
2023-01-17T18:58:50.053Z,43.40
2023-01-17T19:01:26.205Z,42.80
2023-01-17T19:03:59.259Z,42.80
2023-01-17T19:06:29.640Z,45.40
2023-01-17T19:08:58.681Z,40.60
2023-01-17T19:11:27.962Z,42.30
2023-01-17T19:13:56.145Z,32.90
2023-01-17T19:16:28.784Z,42.40
2023-01-17T19:19:00.985Z,42.90
2023-01-17T19:21:28.617Z,38.20
2023-01-17T19:23:56.861Z,36.90
2023-01-17T19:26:26.846Z,40.10
2023-01-17T19:28:58.203Z,38.80
2023-01-17T19:31:29.118Z,35.60
2023-01-17T19:33:57.933Z,36.60
2023-01-17T19:36:27.747Z,40.40
2023-01-17T19:39:04.365Z,29.10
2023-01-17T19:41:34.252Z,33.60
2023-01-17T19:44:05.796Z,28.10
2023-01-17T19:46:33.895Z,28.10
2023-01-17T19:49:02.985Z,27.80
2023-01-17T19:51:29.980Z,25.80
2023-01-17T19:54:00.575Z,31.10
2023-01-17T19:56:28.340Z,23.30
2023-01-17T19:59:00.040Z,25.30
2023-01-17T20:01:29.929Z,25.40
2023-01-17T20:03:58.625Z,23.40
2023-01-17T20:06:28.354Z,29.10
2023-01-17T20:08:58.638Z,24.40
2023-01-17T20:11:27.476Z,24.80
2023-01-17T20:13:57.004Z,23.20
2023-01-17T20:16:27.170Z,26.20
2023-01-17T20:18:54.268Z,28.30
2023-01-17T20:21:31.870Z,29.40
2023-01-17T20:24:02.655Z,33.70
2023-01-17T20:26:36.141Z,29.30
2023-01-17T20:29:10.918Z,27.90
2023-01-17T20:31:40.306Z,29.70
2023-01-17T20:34:10.946Z,29.40
2023-01-17T20:36:41.168Z,21.70
2023-01-17T20:39:10.677Z,21.30
2023-01-17T20:41:41.683Z,17.90
2023-01-17T20:44:12.358Z,19.60
2023-01-17T20:46:40.914Z,19.50
2023-01-17T20:49:15.764Z,17.00
2023-01-17T20:51:44.622Z,18.40
2023-01-17T20:54:14.654Z,19.70
2023-01-17T20:56:42.023Z,19.10
2023-01-17T20:59:14.890Z,20.00
2023-01-17T21:01:43.266Z,18.80
2023-01-17T21:04:10.874Z,21.00
2023-01-17T21:06:39.898Z,21.60
2023-01-17T21:09:10.304Z,23.70
2023-01-17T21:11:37.835Z,22.00
2023-01-17T21:14:05.965Z,24.80
2023-01-17T21:16:33.615Z,20.90
2023-01-17T21:19:01.360Z,21.90
2023-01-17T21:21:29.030Z,18.00
2023-01-17T21:23:58.554Z,20.60
2023-01-17T21:26:27.744Z,19.30
2023-01-17T21:28:55.736Z,20.00
2023-01-17T21:31:24.616Z,19.90
2023-01-17T21:33:56.940Z,17.90
2023-01-17T21:36:27.867Z,21.10
2023-01-17T21:38:58.171Z,15.90
2023-01-17T21:41:28.303Z,18.60
2023-01-17T21:43:59.412Z,16.50
2023-01-17T21:46:28.093Z,15.80
2023-01-17T21:48:57.778Z,19.00
2023-01-17T21:51:45.685Z,16.20
2023-01-17T21:54:12.759Z,17.40
2023-01-17T21:56:58.402Z,15.70
2023-01-17T22:01:55.241Z,16.70
2023-01-17T22:04:22.191Z,16.90
2023-01-17T22:06:49.279Z,20.30
2023-01-17T22:09:18.340Z,16.30
2023-01-17T22:11:45.372Z,15.00
2023-01-17T22:14:12.371Z,14.10
2023-01-17T22:16:40.058Z,17.10
2023-01-17T22:19:07.699Z,16.30
2023-01-17T22:21:34.783Z,15.80
2023-01-17T22:24:01.795Z,15.00
2023-01-17T22:26:31.222Z,12.70
2023-01-17T22:29:02.006Z,17.40
2023-01-17T22:31:29.780Z,16.70
2023-01-17T22:34:00.280Z,18.50
2023-01-17T22:36:28.873Z,15.80
2023-01-17T22:38:56.273Z,15.70
2023-01-17T22:41:27.414Z,15.40
2023-01-17T22:43:58.348Z,20.50
2023-01-17T22:46:29.032Z,19.40
2023-01-17T22:48:57.056Z,18.60
2023-01-17T22:51:26.227Z,18.00
2023-01-17T22:53:55.899Z,26.40
2023-01-17T22:56:26.192Z,22.40
2023-01-17T22:58:53.532Z,22.40
2023-01-17T23:01:23.583Z,22.50
2023-01-17T23:03:55.807Z,17.30
2023-01-17T23:06:34.942Z,16.50
2023-01-17T23:09:06.168Z,14.20
2023-01-17T23:11:43.128Z,11.00
2023-01-17T23:14:13.159Z,12.40
2023-01-17T23:17:09.073Z,10.80
2023-01-17T23:19:46.761Z,13.60
2023-01-17T23:22:19.436Z,16.30
2023-01-17T23:24:52.739Z,16.30
2023-01-17T23:27:45.766Z,15.00
2023-01-17T23:30:16.042Z,11.00
2023-01-17T23:32:46.196Z,15.60
2023-01-17T23:35:14.189Z,13.30
2023-01-17T23:37:59.759Z,14.80
2023-01-17T23:40:26.828Z,13.50
2023-01-17T23:43:12.166Z,14.90
2023-01-17T23:45:39.252Z,17.50
2023-01-17T23:48:10.700Z,17.20
2023-01-17T23:50:40.112Z,16.10
2023-01-17T23:53:08.056Z,13.00
2023-01-17T23:55:40.255Z,9.80
2023-01-17T23:58:09.548Z,9.00
